METAR Data
IDs: Format: Raw Decoded Include TAF

Data at: 1327 UTC 24 Jan 2021

METAR for:K6B9 (Skaneateles Arpt, NY, US)
Text:K6B9 241315Z AUTO 27003KT 10SM OVC017 M11/M13 A3026 RMK AO2
Temperature:-11.0°C ( 12°F)
Dewpoint:-13.0°C ( 9°F) [RH = 85%]
Pressure (altimeter):30.26 inches Hg (1024.8 mb)
Winds:from the W (270 degrees) at 3 MPH (3 knots; 1.5 m/s)
Visibility:10 or more sm (16+ km)
Ceiling:1700 feet AGL
Clouds: overcast cloud deck at 1700 feet AGL
QC Flag:automated observation with no human augmentation
Text:K6B9 241255Z AUTO 26003KT 10SM SCT017 OVC035 M11/M13 A3026 RMK AO2
Temperature:-11.0°C ( 12°F)
Dewpoint:-13.0°C ( 9°F) [RH = 85%]
Pressure (altimeter):30.26 inches Hg (1024.8 mb)
Winds:from the W (260 degrees) at 3 MPH (3 knots; 1.5 m/s)
Visibility:10 or more sm (16+ km)
Ceiling:3500 feet AGL
Clouds: scattered clouds at 1700 feet AGL, overcast cloud deck at 3500 feet AGL
QC Flag:automated observation with no human augmentation
Text:K6B9 241235Z AUTO 00000KT 10SM FEW016 OVC035 M11/M13 A3026 RMK AO2
Temperature:-11.0°C ( 12°F)
Dewpoint:-13.0°C ( 9°F) [RH = 85%]
Pressure (altimeter):30.26 inches Hg (1024.8 mb)
Winds:calm
Visibility:10 or more sm (16+ km)
Ceiling:3500 feet AGL
Clouds: few clouds at 1600 feet AGL, overcast cloud deck at 3500 feet AGL
QC Flag:automated observation with no human augmentation
Text:K6B9 241215Z AUTO 00000KT 10SM FEW018 OVC036 M12/M14 A3026 RMK AO2
Temperature:-12.0°C ( 10°F)
Dewpoint:-14.0°C ( 7°F) [RH = 85%]
Pressure (altimeter):30.26 inches Hg (1024.8 mb)
Winds:calm
Visibility:10 or more sm (16+ km)
Ceiling:3600 feet AGL
Clouds: few clouds at 1800 feet AGL, overcast cloud deck at 3600 feet AGL
QC Flag:automated observation with no human augmentation
Text:K6B9 241155Z AUTO 28003KT 10SM OVC036 M12/M13 A3026 RMK AO2
Temperature:-12.0°C ( 10°F)
Dewpoint:-13.0°C ( 9°F) [RH = 92%]
Pressure (altimeter):30.26 inches Hg (1024.8 mb)
Winds:from the W (280 degrees) at 3 MPH (3 knots; 1.5 m/s)
Visibility:10 or more sm (16+ km)
Ceiling:3600 feet AGL
Clouds: overcast cloud deck at 3600 feet AGL
QC Flag:automated observation with no human augmentation
Text:K6B9 241135Z AUTO 27003KT 10SM OVC037 M12/M13 A3026 RMK AO2
Temperature:-12.0°C ( 10°F)
Dewpoint:-13.0°C ( 9°F) [RH = 92%]
Pressure (altimeter):30.26 inches Hg (1024.8 mb)
Winds:from the W (270 degrees) at 3 MPH (3 knots; 1.5 m/s)
Visibility:10 or more sm (16+ km)
Ceiling:3700 feet AGL
Clouds: overcast cloud deck at 3700 feet AGL
QC Flag:automated observation with no human augmentation
Text:K6B9 241115Z AUTO 00000KT 10SM OVC037 M12/M14 A3026 RMK AO2
Temperature:-12.0°C ( 10°F)
Dewpoint:-14.0°C ( 7°F) [RH = 85%]
Pressure (altimeter):30.26 inches Hg (1024.8 mb)
Winds:calm
Visibility:10 or more sm (16+ km)
Ceiling:3700 feet AGL
Clouds: overcast cloud deck at 3700 feet AGL
QC Flag:automated observation with no human augmentation
Text:K6B9 241055Z AUTO 27004KT 10SM OVC038 M13/M14 A3026 RMK AO2
Temperature:-13.0°C ( 9°F)
Dewpoint:-14.0°C ( 7°F) [RH = 92%]
Pressure (altimeter):30.26 inches Hg (1024.8 mb)
Winds:from the W (270 degrees) at 5 MPH (4 knots; 2.1 m/s)
Visibility:10 or more sm (16+ km)
Ceiling:3800 feet AGL
Clouds: overcast cloud deck at 3800 feet AGL
QC Flag:automated observation with no human augmentation
Text:K6B9 241035Z AUTO 27004KT 10SM OVC038 M14/M15 A3026 RMK AO2
Temperature:-14.0°C ( 7°F)
Dewpoint:-15.0°C ( 5°F) [RH = 92%]
Pressure (altimeter):30.26 inches Hg (1024.8 mb)
Winds:from the W (270 degrees) at 5 MPH (4 knots; 2.1 m/s)
Visibility:10 or more sm (16+ km)
Ceiling:3800 feet AGL
Clouds: overcast cloud deck at 3800 feet AGL
QC Flag:automated observation with no human augmentation
Text:K6B9 241015Z AUTO 00000KT 10SM BKN038 M16/M17 A3025 RMK AO2
Temperature:-16.0°C ( 3°F)
Dewpoint:-17.0°C ( 1°F) [RH = 92%]
Pressure (altimeter):30.25 inches Hg (1024.5 mb)
Winds:calm
Visibility:10 or more sm (16+ km)
Ceiling:3800 feet AGL
Clouds: broken clouds at 3800 feet AGL
QC Flag:automated observation with no human augmentation
Text:K6B9 240955Z AUTO 26003KT 10SM SCT042 M15/M16 A3025 RMK AO2
Temperature:-15.0°C ( 5°F)
Dewpoint:-16.0°C ( 3°F) [RH = 92%]
Pressure (altimeter):30.25 inches Hg (1024.5 mb)
Winds:from the W (260 degrees) at 3 MPH (3 knots; 1.5 m/s)
Visibility:10 or more sm (16+ km)
Ceiling:at least 12,000 feet AGL
Clouds: scattered clouds at 4200 feet AGL
QC Flag:automated observation with no human augmentation
Text:K6B9 240935Z AUTO 00000KT 10SM BKN043 M14/M16 A3025 RMK AO2
Temperature:-14.0°C ( 7°F)
Dewpoint:-16.0°C ( 3°F) [RH = 85%]
Pressure (altimeter):30.25 inches Hg (1024.5 mb)
Winds:calm
Visibility:10 or more sm (16+ km)
Ceiling:4300 feet AGL
Clouds: broken clouds at 4300 feet AGL
QC Flag:automated observation with no human augmentation
Text:K6B9 240915Z AUTO 00000KT 10SM CLR M14/M16 A3025 RMK AO2
Temperature:-14.0°C ( 7°F)
Dewpoint:-16.0°C ( 3°F) [RH = 85%]
Pressure (altimeter):30.25 inches Hg (1024.5 mb)
Winds:calm
Visibility:10 or more sm (16+ km)
Ceiling:at least 12,000 feet AGL
Clouds:sky clear below 12,000 feet AGL
QC Flag:automated observation with no human augmentation
Text:K6B9 240855Z AUTO 00000KT 10SM CLR M14/M15 A3025 RMK AO2
Temperature:-14.0°C ( 7°F)
Dewpoint:-15.0°C ( 5°F) [RH = 92%]
Pressure (altimeter):30.25 inches Hg (1024.5 mb)
Winds:calm
Visibility:10 or more sm (16+ km)
Ceiling:at least 12,000 feet AGL
Clouds:sky clear below 12,000 feet AGL
QC Flag:automated observation with no human augmentation
Text:K6B9 240835Z AUTO 00000KT 10SM CLR M13/M15 A3025 RMK AO2
Temperature:-13.0°C ( 9°F)
Dewpoint:-15.0°C ( 5°F) [RH = 85%]
Pressure (altimeter):30.25 inches Hg (1024.5 mb)
Winds:calm
Visibility:10 or more sm (16+ km)
Ceiling:at least 12,000 feet AGL
Clouds:sky clear below 12,000 feet AGL
QC Flag:automated observation with no human augmentation
Text:K6B9 240815Z AUTO 00000KT 10SM FEW014 M12/M14 A3024 RMK AO2
Temperature:-12.0°C ( 10°F)
Dewpoint:-14.0°C ( 7°F) [RH = 85%]
Pressure (altimeter):30.24 inches Hg (1024.1 mb)
Winds:calm
Visibility:10 or more sm (16+ km)
Ceiling:at least 12,000 feet AGL
Clouds: few clouds at 1400 feet AGL
QC Flag:automated observation with no human augmentation
Text:K6B9 240755Z AUTO 00000KT 10SM SCT016 BKN020 M11/M14 A3025 RMK AO2
Temperature:-11.0°C ( 12°F)
Dewpoint:-14.0°C ( 7°F) [RH = 78%]
Pressure (altimeter):30.25 inches Hg (1024.5 mb)
Winds:calm
Visibility:10 or more sm (16+ km)
Ceiling:2000 feet AGL
Clouds: scattered clouds at 1600 feet AGL, broken clouds at 2000 feet AGL
QC Flag:automated observation with no human augmentation
Text:K6B9 240735Z AUTO 00000KT 10SM BKN018 BKN030 M11/M14 A3024 RMK AO2
Temperature:-11.0°C ( 12°F)
Dewpoint:-14.0°C ( 7°F) [RH = 78%]
Pressure (altimeter):30.24 inches Hg (1024.1 mb)
Winds:calm
Visibility:10 or more sm (16+ km)
Ceiling:1800 feet AGL
Clouds: broken clouds at 1800 feet AGL, broken clouds at 3000 feet AGL
QC Flag:automated observation with no human augmentation
Text:K6B9 240715Z AUTO 00000KT 10SM FEW014 FEW019 FEW023 M11/M14 A3024 RMK AO2
Temperature:-11.0°C ( 12°F)
Dewpoint:-14.0°C ( 7°F) [RH = 78%]
Pressure (altimeter):30.24 inches Hg (1024.1 mb)
Winds:calm
Visibility:10 or more sm (16+ km)
Ceiling:at least 12,000 feet AGL
Clouds: few clouds at 1400 feet AGL, few clouds at 1900 feet AGL, few clouds at 2300 feet AGL
QC Flag:automated observation with no human augmentation
Text:K6B9 240655Z AUTO VRB04KT 10SM FEW014 FEW020 FEW030 M10/M13 A3023 RMK AO2
Temperature:-10.0°C ( 14°F)
Dewpoint:-13.0°C ( 9°F) [RH = 79%]
Pressure (altimeter):30.23 inches Hg (1023.8 mb)
Winds:variable direction winds at 5 MPH (4 knots; 2.1 m/s)
Visibility:10 or more sm (16+ km)
Ceiling:at least 12,000 feet AGL
Clouds: few clouds at 1400 feet AGL, few clouds at 2000 feet AGL, few clouds at 3000 feet AGL
QC Flag:automated observation with no human augmentation
Text:K6B9 240635Z AUTO 00000KT 10SM BKN020 M10/M12 A3023 RMK AO2
Temperature:-10.0°C ( 14°F)
Dewpoint:-12.0°C ( 10°F) [RH = 85%]
Pressure (altimeter):30.23 inches Hg (1023.8 mb)
Winds:calm
Visibility:10 or more sm (16+ km)
Ceiling:2000 feet AGL
Clouds: broken clouds at 2000 feet AGL
QC Flag:automated observation with no human augmentation
Text:K6B9 240615Z AUTO VRB05G12KT 10SM -SN OVC021 M09/M12 A3023 RMK AO2
Temperature: -9.0°C ( 16°F)
Dewpoint:-12.0°C ( 10°F) [RH = 79%]
Pressure (altimeter):30.23 inches Hg (1023.8 mb)
Winds:variable direction winds at 6 MPH (5 knots; 2.6 m/s) gusting to 14 MPH (12 knots; 6.2 m/s)
Visibility:10 or more sm (16+ km)
Ceiling:2100 feet AGL
Clouds: overcast cloud deck at 2100 feet AGL
Weather:-SN (light snow)
QC Flag:automated observation with no human augmentation
Text:K6B9 240555Z AUTO 32005G10KT 10SM OVC022 M09/M12 A3023 RMK AO2
Temperature: -9.0°C ( 16°F)
Dewpoint:-12.0°C ( 10°F) [RH = 79%]
Pressure (altimeter):30.23 inches Hg (1023.8 mb)
Winds:from the NW (320 degrees) at 6 MPH (5 knots; 2.6 m/s) gusting to 12 MPH (10 knots; 5.1 m/s)
Visibility:10 or more sm (16+ km)
Ceiling:2200 feet AGL
Clouds: overcast cloud deck at 2200 feet AGL
QC Flag:automated observation with no human augmentation
Text:K6B9 240535Z AUTO VRB06G13KT 10SM OVC024 M09/M12 A3023 RMK AO2
Temperature: -9.0°C ( 16°F)
Dewpoint:-12.0°C ( 10°F) [RH = 79%]
Pressure (altimeter):30.23 inches Hg (1023.8 mb)
Winds:variable direction winds at 7 MPH (6 knots; 3.1 m/s) gusting to 15 MPH (13 knots; 6.7 m/s)
Visibility:10 or more sm (16+ km)
Ceiling:2400 feet AGL
Clouds: overcast cloud deck at 2400 feet AGL
QC Flag:automated observation with no human augmentation
Text:K6B9 240515Z AUTO 00000G12KT 9SM -SN BKN025 OVC030 M08/M12 A3023 RMK AO2
Temperature: -8.0°C ( 18°F)
Dewpoint:-12.0°C ( 10°F) [RH = 73%]
Pressure (altimeter):30.23 inches Hg (1023.8 mb)
Winds:calm
Visibility: 9 sm ( 14 km)
Ceiling:2500 feet AGL
Clouds: broken clouds at 2500 feet AGL, overcast cloud deck at 3000 feet AGL
Weather:-SN (light snow)
QC Flag:automated observation with no human augmentation
Text:K6B9 240455Z AUTO 31008G13KT 270V340 10SM SCT023 OVC029 M08/M12 A3023 RMK AO2
Temperature: -8.0°C ( 18°F)
Dewpoint:-12.0°C ( 10°F) [RH = 73%]
Pressure (altimeter):30.23 inches Hg (1023.8 mb)
Winds:from the NW (310 degrees) at 9 MPH (8 knots; 4.1 m/s) gusting to 15 MPH (13 knots; 6.7 m/s)
Visibility:10 or more sm (16+ km)
Ceiling:2900 feet AGL
Clouds: scattered clouds at 2300 feet AGL, overcast cloud deck at 2900 feet AGL
QC Flag:automated observation with no human augmentation
Text:K6B9 240435Z AUTO VRB06G13KT 5SM -SN FEW005 SCT015 BKN025 M08/M11 A3023 RMK AO2
Temperature: -8.0°C ( 18°F)
Dewpoint:-11.0°C ( 12°F) [RH = 79%]
Pressure (altimeter):30.23 inches Hg (1023.8 mb)
Winds:variable direction winds at 7 MPH (6 knots; 3.1 m/s) gusting to 15 MPH (13 knots; 6.7 m/s)
Visibility: 5 sm ( 8 km)
Ceiling:2500 feet AGL
Clouds: few clouds at 500 feet AGL, scattered clouds at 1500 feet AGL, broken clouds at 2500 feet AGL
Weather:-SN (light snow)
QC Flag:automated observation with no human augmentation
Text:K6B9 240415Z AUTO 31009G17KT 3SM -SN SCT004 BKN014 OVC036 M08/M10 A3023 RMK AO2
Temperature: -8.0°C ( 18°F)
Dewpoint:-10.0°C ( 14°F) [RH = 85%]
Pressure (altimeter):30.23 inches Hg (1023.8 mb)
Winds:from the NW (310 degrees) at 10 MPH (9 knots; 4.6 m/s) gusting to 20 MPH (17 knots; 8.7 m/s)
Visibility: 3 sm ( 5 km)
Ceiling:1400 feet AGL
Clouds: scattered clouds at 400 feet AGL, broken clouds at 1400 feet AGL, overcast cloud deck at 3600 feet AGL
Weather:-SN (light snow)
QC Flag:automated observation with no human augmentation
Text:K6B9 240355Z AUTO VRB06G14KT 1 1/2SM -SN BKN004 BKN012 OVC020 M08/M10 A3022 RMK AO2
Temperature: -8.0°C ( 18°F)
Dewpoint:-10.0°C ( 14°F) [RH = 85%]
Pressure (altimeter):30.22 inches Hg (1023.5 mb)
Winds:variable direction winds at 7 MPH (6 knots; 3.1 m/s) gusting to 16 MPH (14 knots; 7.2 m/s)
Visibility: 1.50 sm ( 2.41 km)
Ceiling:400 feet AGL
Clouds: broken clouds at 400 feet AGL, broken clouds at 1200 feet AGL, overcast cloud deck at 2000 feet AGL
Weather:-SN (light snow)
QC Flag:automated observation with no human augmentation
Text:K6B9 240335Z AUTO 31007G15KT 280V340 6SM -SN FEW015 BKN025 OVC031 M08/M11 A3022 RMK AO2
Temperature: -8.0°C ( 18°F)
Dewpoint:-11.0°C ( 12°F) [RH = 79%]
Pressure (altimeter):30.22 inches Hg (1023.5 mb)
Winds:from the NW (310 degrees) at 8 MPH (7 knots; 3.6 m/s) gusting to 17 MPH (15 knots; 7.7 m/s)
Visibility: 6 sm ( 10 km)
Ceiling:2500 feet AGL
Clouds: few clouds at 1500 feet AGL, broken clouds at 2500 feet AGL, overcast cloud deck at 3100 feet AGL
Weather:-SN (light snow)
QC Flag:automated observation with no human augmentation
Text:K6B9 240315Z AUTO 31008KT 10SM SCT023 BKN034 OVC055 M08/M10 A3022 RMK AO2
Temperature: -8.0°C ( 18°F)
Dewpoint:-10.0°C ( 14°F) [RH = 85%]
Pressure (altimeter):30.22 inches Hg (1023.5 mb)
Winds:from the NW (310 degrees) at 9 MPH (8 knots; 4.1 m/s)
Visibility:10 or more sm (16+ km)
Ceiling:3400 feet AGL
Clouds: scattered clouds at 2300 feet AGL, broken clouds at 3400 feet AGL, overcast cloud deck at 5500 feet AGL
QC Flag:automated observation with no human augmentation
Text:K6B9 240255Z AUTO 29007KT 2SM -SN SCT003 BKN011 OVC033 M08/M08 A3022 RMK AO2
Temperature: -8.0°C ( 18°F)
Dewpoint: -8.0°C ( 18°F) [RH = 100%]
Pressure (altimeter):30.22 inches Hg (1023.5 mb)
Winds:from the WNW (290 degrees) at 8 MPH (7 knots; 3.6 m/s)
Visibility: 2.00 sm ( 3.22 km)
Ceiling:1100 feet AGL
Clouds: scattered clouds at 300 feet AGL, broken clouds at 1100 feet AGL, overcast cloud deck at 3300 feet AGL
Weather:-SN (light snow)
QC Flag:automated observation with no human augmentation
Text:K6B9 240235Z AUTO 29005G12KT 3/4SM -SN OVC003 M08/M08 A3022 RMK AO2
Temperature: -8.0°C ( 18°F)
Dewpoint: -8.0°C ( 18°F) [RH = 100%]
Pressure (altimeter):30.22 inches Hg (1023.5 mb)
Winds:from the WNW (290 degrees) at 6 MPH (5 knots; 2.6 m/s) gusting to 14 MPH (12 knots; 6.2 m/s)
Visibility: 0.75 sm ( 1.21 km)
Ceiling:300 feet AGL
Clouds: overcast cloud deck at 300 feet AGL
Weather:-SN (light snow)
QC Flag:automated observation with no human augmentation
Text:K6B9 240215Z AUTO 28011KT 1 1/4SM -SN OVC003 M08/M08 A3022 RMK AO2
Temperature: -8.0°C ( 18°F)
Dewpoint: -8.0°C ( 18°F) [RH = 100%]
Pressure (altimeter):30.22 inches Hg (1023.5 mb)
Winds:from the W (280 degrees) at 13 MPH (11 knots; 5.7 m/s)
Visibility: 1.25 sm ( 2.01 km)
Ceiling:300 feet AGL
Clouds: overcast cloud deck at 300 feet AGL
Weather:-SN (light snow)
QC Flag:automated observation with no human augmentation
Text:K6B9 240155Z AUTO 28009G15KT 1SM -SN OVC003 M08/M08 A3021 RMK AO2
Temperature: -8.0°C ( 18°F)
Dewpoint: -8.0°C ( 18°F) [RH = 100%]
Pressure (altimeter):30.21 inches Hg (1023.1 mb)
Winds:from the W (280 degrees) at 10 MPH (9 knots; 4.6 m/s) gusting to 17 MPH (15 knots; 7.7 m/s)
Visibility: 1.00 sm ( 1.61 km)
Ceiling:300 feet AGL
Clouds: overcast cloud deck at 300 feet AGL
Weather:-SN (light snow)
QC Flag:automated observation with no human augmentation
Text:K6B9 240135Z AUTO 28009G16KT 1 1/2SM -SN SCT003 BKN009 OVC016 M08/M09 A3021 RMK AO2
Temperature: -8.0°C ( 18°F)
Dewpoint: -9.0°C ( 16°F) [RH = 92%]
Pressure (altimeter):30.21 inches Hg (1023.1 mb)
Winds:from the W (280 degrees) at 10 MPH (9 knots; 4.6 m/s) gusting to 18 MPH (16 knots; 8.2 m/s)
Visibility: 1.50 sm ( 2.41 km)
Ceiling:900 feet AGL
Clouds: scattered clouds at 300 feet AGL, broken clouds at 900 feet AGL, overcast cloud deck at 1600 feet AGL
Weather:-SN (light snow)
QC Flag:automated observation with no human augmentation